Terminal Aerodrome Forecast
Issued by NWS

Home | Current Version | Previous Version | Text Only | Print | Product List | Glossary On
Versions: 1 2 3 4 5 6 7 8 9 10 11 12 13 14 15 16 17 18 19 20 21 22 23 24 25 26 27 28 29 30 31 32 33 34 35 36 37 38 39 40 41
000
FTUS45 KGJT 030106 AAA
TAFASE
TAF AMD
KASE 030106Z 0301/0324 VRB03KT P6SM -RA OVC025 WS020/24040KT
      TEMPO 0301/0303 VRB10G20KT 4SM -SHRA BR OVC020
     FM030300 24015G25KT 1SM -SN BR FEW003 OVC012
     FM030500 31010KT 3SM -SN BR SCT005 BKN015 OVC030
     FM031200 31007KT 4SM -SN BR OVC020
     FM031800 36010G15KT 5SM BR VCSH SCT025 OVC040=

USA.gov is the U.S. government's official web portal to all federal, state and local government web resources and services.